sensor_id;sensor_type;location;lat;lon;timestamp;P1;durP1;ratioP1;P2;durP2;ratioP2
27357;SDS011;14831;50.474;7.616;2022-12-18T00:03:02;5.1;;;4.5;;
27357;SDS011;14831;50.474;7.616;2022-12-18T00:08:02;5.1;;;4.5;;
27357;SDS011;14831;50.474;7.616;2022-12-18T00:13:02;5.1;;;4.5;;
27357;SDS011;14831;50.474;7.616;2022-12-18T00:18:02;5.1;;;4.5;;
27357;SDS011;14831;50.474;7.616;2022-12-18T00:23:02;4.2;;;3.8;;
27357;SDS011;14831;50.474;7.616;2022-12-18T00:28:02;4.2;;;3.8;;
27357;SDS011;14831;50.474;7.616;2022-12-18T00:33:02;4.2;;;3.8;;
27357;SDS011;14831;50.474;7.616;2022-12-18T00:38:02;4.2;;;3.8;;
27357;SDS011;14831;50.474;7.616;2022-12-18T00:43:02;4.2;;;3.8;;
27357;SDS011;14831;50.474;7.616;2022-12-18T00:48:02;4.2;;;3.8;;
27357;SDS011;14831;50.474;7.616;2022-12-18T00:53:02;4.7;;;4.2;;
27357;SDS011;14831;50.474;7.616;2022-12-18T00:58:02;4.7;;;4.2;;
27357;SDS011;14831;50.474;7.616;2022-12-18T01:03:02;4.7;;;4.2;;
27357;SDS011;14831;50.474;7.616;2022-12-18T01:08:02;4.7;;;4.2;;
27357;SDS011;14831;50.474;7.616;2022-12-18T01:13:02;4.7;;;4.2;;
27357;SDS011;14831;50.474;7.616;2022-12-18T01:18:02;4.7;;;4.2;;
27357;SDS011;14831;50.474;7.616;2022-12-18T01:23:02;4.6;;;4.1;;
27357;SDS011;14831;50.474;7.616;2022-12-18T01:28:02;4.6;;;4.1;;
27357;SDS011;14831;50.474;7.616;2022-12-18T01:33:04;4.6;;;4.1;;
27357;SDS011;14831;50.474;7.616;2022-12-18T01:38:02;4.6;;;4.1;;
27357;SDS011;14831;50.474;7.616;2022-12-18T01:43:02;4.6;;;4.1;;
27357;SDS011;14831;50.474;7.616;2022-12-18T01:48:04;4.6;;;4.1;;
27357;SDS011;14831;50.474;7.616;2022-12-18T01:53:06;4.2;;;3.8;;
27357;SDS011;14831;50.474;7.616;2022-12-18T01:58:02;4.2;;;3.8;;
27357;SDS011;14831;50.474;7.616;2022-12-18T02:03:02;4.2;;;3.8;;
27357;SDS011;14831;50.474;7.616;2022-12-18T02:08:09;4.2;;;3.8;;
27357;SDS011;14831;50.474;7.616;2022-12-18T02:18:07;4.2;;;3.8;;
27357;SDS011;14831;50.474;7.616;2022-12-18T02:23:08;4.0;;;3.6;;
27357;SDS011;14831;50.474;7.616;2022-12-18T02:28:04;4.0;;;3.6;;
27357;SDS011;14831;50.474;7.616;2022-12-18T02:33:05;4.0;;;3.6;;
27357;SDS011;14831;50.474;7.616;2022-12-18T02:38:03;4.0;;;3.6;;
27357;SDS011;14831;50.474;7.616;2022-12-18T02:43:03;4.0;;;3.6;;
27357;SDS011;14831;50.474;7.616;2022-12-18T02:48:02;4.0;;;3.6;;
27357;SDS011;14831;50.474;7.616;2022-12-18T02:53:10;4.1;;;3.7;;
27357;SDS011;14831;50.474;7.616;2022-12-18T02:58:07;4.1;;;3.7;;
27357;SDS011;14831;50.474;7.616;2022-12-18T03:03:06;4.1;;;3.7;;
27357;SDS011;14831;50.474;7.616;2022-12-18T03:08:05;4.1;;;3.7;;
27357;SDS011;14831;50.474;7.616;2022-12-18T03:13:05;4.1;;;3.7;;
27357;SDS011;14831;50.474;7.616;2022-12-18T03:18:05;4.1;;;3.7;;
27357;SDS011;14831;50.474;7.616;2022-12-18T03:23:08;4.3;;;3.8;;
27357;SDS011;14831;50.474;7.616;2022-12-18T03:28:03;4.3;;;3.8;;
27357;SDS011;14831;50.474;7.616;2022-12-18T03:33:06;4.3;;;3.8;;
27357;SDS011;14831;50.474;7.616;2022-12-18T03:38:02;4.3;;;3.8;;
27357;SDS011;14831;50.474;7.616;2022-12-18T03:43:07;4.3;;;3.8;;
27357;SDS011;14831;50.474;7.616;2022-12-18T03:48:05;4.3;;;3.8;;
27357;SDS011;14831;50.474;7.616;2022-12-18T03:53:11;3.9;;;3.5;;
27357;SDS011;14831;50.474;7.616;2022-12-18T03:58:04;3.9;;;3.5;;
27357;SDS011;14831;50.474;7.616;2022-12-18T04:03:04;3.9;;;3.5;;
27357;SDS011;14831;50.474;7.616;2022-12-18T04:08:02;3.9;;;3.5;;
27357;SDS011;14831;50.474;7.616;2022-12-18T04:13:02;3.9;;;3.5;;
27357;SDS011;14831;50.474;7.616;2022-12-18T04:18:03;3.9;;;3.5;;
27357;SDS011;14831;50.474;7.616;2022-12-18T04:23:02;4.3;;;3.6;;
27357;SDS011;14831;50.474;7.616;2022-12-18T04:28:02;4.3;;;3.6;;
27357;SDS011;14831;50.474;7.616;2022-12-18T04:33:02;4.3;;;3.6;;
27357;SDS011;14831;50.474;7.616;2022-12-18T04:38:02;4.3;;;3.6;;
27357;SDS011;14831;50.474;7.616;2022-12-18T04:43:02;4.3;;;3.6;;
27357;SDS011;14831;50.474;7.616;2022-12-18T04:48:02;4.3;;;3.6;;
27357;SDS011;14831;50.474;7.616;2022-12-18T04:53:02;3.7;;;3.3;;
27357;SDS011;14831;50.474;7.616;2022-12-18T04:58:02;3.7;;;3.3;;
27357;SDS011;14831;50.474;7.616;2022-12-18T05:03:02;3.7;;;3.3;;
27357;SDS011;14831;50.474;7.616;2022-12-18T05:08:02;3.7;;;3.3;;
27357;SDS011;14831;50.474;7.616;2022-12-18T05:13:02;3.7;;;3.3;;
27357;SDS011;14831;50.474;7.616;2022-12-18T05:18:03;3.7;;;3.3;;
27357;SDS011;14831;50.474;7.616;2022-12-18T05:23:02;4.0;;;3.5;;
27357;SDS011;14831;50.474;7.616;2022-12-18T05:28:02;4.0;;;3.5;;
27357;SDS011;14831;50.474;7.616;2022-12-18T05:33:02;4.0;;;3.5;;
27357;SDS011;14831;50.474;7.616;2022-12-18T05:38:02;4.0;;;3.5;;
27357;SDS011;14831;50.474;7.616;2022-12-18T05:43:02;4.0;;;3.5;;
27357;SDS011;14831;50.474;7.616;2022-12-18T05:48:02;4.0;;;3.5;;
27357;SDS011;14831;50.474;7.616;2022-12-18T05:53:02;3.8;;;3.4;;
27357;SDS011;14831;50.474;7.616;2022-12-18T05:58:02;3.8;;;3.4;;
27357;SDS011;14831;50.474;7.616;2022-12-18T06:03:02;3.8;;;3.4;;
27357;SDS011;14831;50.474;7.616;2022-12-18T06:08:02;3.8;;;3.4;;
27357;SDS011;14831;50.474;7.616;2022-12-18T06:13:02;3.8;;;3.4;;
27357;SDS011;14831;50.474;7.616;2022-12-18T06:18:02;3.8;;;3.4;;
27357;SDS011;14831;50.474;7.616;2022-12-18T06:23:02;3.8;;;3.4;;
27357;SDS011;14831;50.474;7.616;2022-12-18T06:28:02;3.8;;;3.4;;
27357;SDS011;14831;50.474;7.616;2022-12-18T06:33:02;3.8;;;3.4;;
27357;SDS011;14831;50.474;7.616;2022-12-18T06:38:03;3.8;;;3.4;;
27357;SDS011;14831;50.474;7.616;2022-12-18T06:43:02;3.8;;;3.4;;
27357;SDS011;14831;50.474;7.616;2022-12-18T06:48:02;3.8;;;3.4;;
27357;SDS011;14831;50.474;7.616;2022-12-18T06:53:02;3.9;;;3.5;;
27357;SDS011;14831;50.474;7.616;2022-12-18T06:58:02;3.9;;;3.5;;
27357;SDS011;14831;50.474;7.616;2022-12-18T07:03:02;3.9;;;3.5;;
27357;SDS011;14831;50.474;7.616;2022-12-18T07:08:02;3.9;;;3.5;;
27357;SDS011;14831;50.474;7.616;2022-12-18T07:13:02;3.9;;;3.5;;
27357;SDS011;14831;50.474;7.616;2022-12-18T07:18:02;3.9;;;3.5;;
27357;SDS011;14831;50.474;7.616;2022-12-18T07:23:02;3.5;;;3.2;;
27357;SDS011;14831;50.474;7.616;2022-12-18T07:28:02;3.5;;;3.2;;
27357;SDS011;14831;50.474;7.616;2022-12-18T07:33:02;3.5;;;3.2;;
27357;SDS011;14831;50.474;7.616;2022-12-18T07:38:02;3.5;;;3.2;;
27357;SDS011;14831;50.474;7.616;2022-12-18T07:43:02;3.5;;;3.2;;
27357;SDS011;14831;50.474;7.616;2022-12-18T07:48:02;3.5;;;3.2;;
27357;SDS011;14831;50.474;7.616;2022-12-18T07:53:02;4.0;;;3.6;;
27357;SDS011;14831;50.474;7.616;2022-12-18T07:58:03;4.0;;;3.6;;
27357;SDS011;14831;50.474;7.616;2022-12-18T08:03:02;4.0;;;3.6;;
27357;SDS011;14831;50.474;7.616;2022-12-18T08:08:02;4.0;;;3.6;;
27357;SDS011;14831;50.474;7.616;2022-12-18T08:13:02;4.0;;;3.6;;
27357;SDS011;14831;50.474;7.616;2022-12-18T08:18:02;4.0;;;3.6;;
27357;SDS011;14831;50.474;7.616;2022-12-18T08:23:02;3.9;;;3.5;;
27357;SDS011;14831;50.474;7.616;2022-12-18T08:28:02;3.9;;;3.5;;
27357;SDS011;14831;50.474;7.616;2022-12-18T08:33:02;3.9;;;3.5;;
27357;SDS011;14831;50.474;7.616;2022-12-18T08:38:02;3.9;;;3.5;;
27357;SDS011;14831;50.474;7.616;2022-12-18T08:43:02;3.9;;;3.5;;
27357;SDS011;14831;50.474;7.616;2022-12-18T08:48:02;3.9;;;3.5;;
27357;SDS011;14831;50.474;7.616;2022-12-18T08:53:02;3.6;;;3.3;;
27357;SDS011;14831;50.474;7.616;2022-12-18T08:58:02;3.6;;;3.3;;
27357;SDS011;14831;50.474;7.616;2022-12-18T09:03:02;3.6;;;3.3;;
27357;SDS011;14831;50.474;7.616;2022-12-18T09:08:02;3.6;;;3.3;;
27357;SDS011;14831;50.474;7.616;2022-12-18T09:13:02;3.6;;;3.3;;
27357;SDS011;14831;50.474;7.616;2022-12-18T09:18:02;3.6;;;3.3;;
27357;SDS011;14831;50.474;7.616;2022-12-18T09:23:02;3.4;;;3.1;;
27357;SDS011;14831;50.474;7.616;2022-12-18T09:28:04;3.4;;;3.1;;
27357;SDS011;14831;50.474;7.616;2022-12-18T09:33:02;3.4;;;3.1;;
27357;SDS011;14831;50.474;7.616;2022-12-18T09:38:02;3.4;;;3.1;;
27357;SDS011;14831;50.474;7.616;2022-12-18T09:43:04;3.4;;;3.1;;
27357;SDS011;14831;50.474;7.616;2022-12-18T09:48:03;3.4;;;3.1;;
27357;SDS011;14831;50.474;7.616;2022-12-18T09:53:05;3.5;;;3.2;;
27357;SDS011;14831;50.474;7.616;2022-12-18T09:58:06;3.5;;;3.2;;
27357;SDS011;14831;50.474;7.616;2022-12-18T10:03:09;3.5;;;3.2;;
27357;SDS011;14831;50.474;7.616;2022-12-18T10:08:06;3.5;;;3.2;;
27357;SDS011;14831;50.474;7.616;2022-12-18T10:13:09;3.5;;;3.2;;
27357;SDS011;14831;50.474;7.616;2022-12-18T10:18:12;3.5;;;3.2;;
27357;SDS011;14831;50.474;7.616;2022-12-18T10:23:09;3.5;;;3.2;;
27357;SDS011;14831;50.474;7.616;2022-12-18T10:28:10;3.5;;;3.2;;
27357;SDS011;14831;50.474;7.616;2022-12-18T10:33:02;3.5;;;3.2;;
27357;SDS011;14831;50.474;7.616;2022-12-18T10:38:05;3.5;;;3.2;;
27357;SDS011;14831;50.474;7.616;2022-12-18T10:43:04;3.5;;;3.2;;
27357;SDS011;14831;50.474;7.616;2022-12-18T10:48:03;3.5;;;3.2;;
27357;SDS011;14831;50.474;7.616;2022-12-18T10:53:04;3.5;;;3.2;;
27357;SDS011;14831;50.474;7.616;2022-12-18T10:58:16;3.5;;;3.2;;
27357;SDS011;14831;50.474;7.616;2022-12-18T11:03:02;3.5;;;3.2;;
27357;SDS011;14831;50.474;7.616;2022-12-18T11:08:02;3.5;;;3.2;;
27357;SDS011;14831;50.474;7.616;2022-12-18T11:13:11;3.5;;;3.2;;
27357;SDS011;14831;50.474;7.616;2022-12-18T11:18:02;3.5;;;3.2;;
27357;SDS011;14831;50.474;7.616;2022-12-18T11:23:04;4.0;;;3.6;;
27357;SDS011;14831;50.474;7.616;2022-12-18T11:28:05;4.0;;;3.6;;
27357;SDS011;14831;50.474;7.616;2022-12-18T11:33:05;4.0;;;3.6;;
27357;SDS011;14831;50.474;7.616;2022-12-18T11:38:10;4.0;;;3.6;;
27357;SDS011;14831;50.474;7.616;2022-12-18T11:43:08;4.0;;;3.6;;
27357;SDS011;14831;50.474;7.616;2022-12-18T11:48:08;4.0;;;3.6;;
27357;SDS011;14831;50.474;7.616;2022-12-18T11:53:02;4.7;;;4.2;;
27357;SDS011;14831;50.474;7.616;2022-12-18T11:58:10;4.7;;;4.2;;
27357;SDS011;14831;50.474;7.616;2022-12-18T12:03:18;4.7;;;4.2;;
27357;SDS011;14831;50.474;7.616;2022-12-18T12:08:07;4.7;;;4.2;;
27357;SDS011;14831;50.474;7.616;2022-12-18T12:13:16;4.7;;;4.2;;
27357;SDS011;14831;50.474;7.616;2022-12-18T12:18:10;4.7;;;4.2;;
27357;SDS011;14831;50.474;7.616;2022-12-18T12:23:09;4.6;;;4.1;;
27357;SDS011;14831;50.474;7.616;2022-12-18T12:28:13;4.6;;;4.1;;
27357;SDS011;14831;50.474;7.616;2022-12-18T12:33:12;4.6;;;4.1;;
27357;SDS011;14831;50.474;7.616;2022-12-18T12:38:07;4.6;;;4.1;;
27357;SDS011;14831;50.474;7.616;2022-12-18T12:43:12;4.6;;;4.1;;
27357;SDS011;14831;50.474;7.616;2022-12-18T12:48:05;4.6;;;4.1;;
27357;SDS011;14831;50.474;7.616;2022-12-18T12:53:07;4.6;;;4.1;;
27357;SDS011;14831;50.474;7.616;2022-12-18T12:58:19;4.6;;;4.1;;
27357;SDS011;14831;50.474;7.616;2022-12-18T13:03:08;4.6;;;4.1;;
27357;SDS011;14831;50.474;7.616;2022-12-18T13:08:04;4.6;;;4.1;;
27357;SDS011;14831;50.474;7.616;2022-12-18T13:13:04;4.6;;;4.1;;
27357;SDS011;14831;50.474;7.616;2022-12-18T13:18:20;4.6;;;4.1;;
27357;SDS011;14831;50.474;7.616;2022-12-18T13:23:19;5.5;;;4.1;;
27357;SDS011;14831;50.474;7.616;2022-12-18T13:28:05;5.5;;;4.1;;
27357;SDS011;14831;50.474;7.616;2022-12-18T13:33:40;5.5;;;4.1;;
27357;SDS011;14831;50.474;7.616;2022-12-18T13:38:20;5.5;;;4.1;;
27357;SDS011;14831;50.474;7.616;2022-12-18T13:43:19;5.5;;;4.1;;
27357;SDS011;14831;50.474;7.616;2022-12-18T13:48:03;5.5;;;4.1;;
27357;SDS011;14831;50.474;7.616;2022-12-18T13:53:04;4.7;;;4.0;;
27357;SDS011;14831;50.474;7.616;2022-12-18T13:58:04;4.7;;;4.0;;
27357;SDS011;14831;50.474;7.616;2022-12-18T14:03:15;4.7;;;4.0;;
27357;SDS011;14831;50.474;7.616;2022-12-18T14:08:05;4.7;;;4.0;;
27357;SDS011;14831;50.474;7.616;2022-12-18T14:13:05;4.7;;;4.0;;
27357;SDS011;14831;50.474;7.616;2022-12-18T14:18:17;4.7;;;4.0;;
27357;SDS011;14831;50.474;7.616;2022-12-18T14:23:02;5.1;;;4.4;;
27357;SDS011;14831;50.474;7.616;2022-12-18T14:28:08;5.1;;;4.4;;
27357;SDS011;14831;50.474;7.616;2022-12-18T14:33:04;5.1;;;4.4;;
27357;SDS011;14831;50.474;7.616;2022-12-18T14:38:18;5.1;;;4.4;;
27357;SDS011;14831;50.474;7.616;2022-12-18T14:43:02;5.1;;;4.4;;
27357;SDS011;14831;50.474;7.616;2022-12-18T14:48:06;5.1;;;4.4;;
27357;SDS011;14831;50.474;7.616;2022-12-18T14:53:02;5.2;;;4.0;;
27357;SDS011;14831;50.474;7.616;2022-12-18T14:58:02;5.2;;;4.0;;
27357;SDS011;14831;50.474;7.616;2022-12-18T15:03:07;5.2;;;4.0;;
27357;SDS011;14831;50.474;7.616;2022-12-18T15:08:02;5.2;;;4.0;;
27357;SDS011;14831;50.474;7.616;2022-12-18T15:13:20;5.2;;;4.0;;
27357;SDS011;14831;50.474;7.616;2022-12-18T15:18:05;5.2;;;4.0;;
27357;SDS011;14831;50.474;7.616;2022-12-18T15:23:02;5.0;;;4.2;;
27357;SDS011;14831;50.474;7.616;2022-12-18T15:28:02;5.0;;;4.2;;
27357;SDS011;14831;50.474;7.616;2022-12-18T15:33:24;5.0;;;4.2;;
27357;SDS011;14831;50.474;7.616;2022-12-18T15:38:02;5.0;;;4.2;;
27357;SDS011;14831;50.474;7.616;2022-12-18T15:43:05;5.0;;;4.2;;
27357;SDS011;14831;50.474;7.616;2022-12-18T15:48:08;5.0;;;4.2;;
27357;SDS011;14831;50.474;7.616;2022-12-18T15:53:02;6.6;;;4.6;;
27357;SDS011;14831;50.474;7.616;2022-12-18T15:58:02;6.6;;;4.6;;
27357;SDS011;14831;50.474;7.616;2022-12-18T16:03:03;6.6;;;4.6;;
27357;SDS011;14831;50.474;7.616;2022-12-18T16:08:02;6.6;;;4.6;;
27357;SDS011;14831;50.474;7.616;2022-12-18T16:13:02;6.6;;;4.6;;
27357;SDS011;14831;50.474;7.616;2022-12-18T16:18:02;6.6;;;4.6;;
27357;SDS011;14831;50.474;7.616;2022-12-18T16:23:02;5.9;;;4.3;;
27357;SDS011;14831;50.474;7.616;2022-12-18T16:28:02;5.9;;;4.3;;
27357;SDS011;14831;50.474;7.616;2022-12-18T16:33:02;5.9;;;4.3;;
27357;SDS011;14831;50.474;7.616;2022-12-18T16:38:02;5.9;;;4.3;;
27357;SDS011;14831;50.474;7.616;2022-12-18T16:43:02;5.9;;;4.3;;
27357;SDS011;14831;50.474;7.616;2022-12-18T16:48:02;5.9;;;4.3;;
27357;SDS011;14831;50.474;7.616;2022-12-18T16:53:02;6.5;;;4.8;;
27357;SDS011;14831;50.474;7.616;2022-12-18T16:58:02;6.5;;;4.8;;
27357;SDS011;14831;50.474;7.616;2022-12-18T17:03:02;6.5;;;4.8;;
27357;SDS011;14831;50.474;7.616;2022-12-18T17:08:02;6.5;;;4.8;;
27357;SDS011;14831;50.474;7.616;2022-12-18T17:13:02;6.5;;;4.8;;
27357;SDS011;14831;50.474;7.616;2022-12-18T17:18:03;6.5;;;4.8;;
27357;SDS011;14831;50.474;7.616;2022-12-18T17:23:02;4.9;;;4.4;;
27357;SDS011;14831;50.474;7.616;2022-12-18T17:28:02;4.9;;;4.4;;
27357;SDS011;14831;50.474;7.616;2022-12-18T17:33:02;4.9;;;4.4;;
27357;SDS011;14831;50.474;7.616;2022-12-18T17:38:02;4.9;;;4.4;;
27357;SDS011;14831;50.474;7.616;2022-12-18T17:43:02;4.9;;;4.4;;
27357;SDS011;14831;50.474;7.616;2022-12-18T17:48:02;4.9;;;4.4;;
27357;SDS011;14831;50.474;7.616;2022-12-18T17:53:02;5.1;;;4.6;;
27357;SDS011;14831;50.474;7.616;2022-12-18T17:58:02;5.1;;;4.6;;
27357;SDS011;14831;50.474;7.616;2022-12-18T18:03:02;5.1;;;4.6;;
27357;SDS011;14831;50.474;7.616;2022-12-18T18:08:02;5.1;;;4.6;;
27357;SDS011;14831;50.474;7.616;2022-12-18T18:13:02;5.1;;;4.6;;
27357;SDS011;14831;50.474;7.616;2022-12-18T18:18:02;5.1;;;4.6;;
27357;SDS011;14831;50.474;7.616;2022-12-18T18:23:02;4.7;;;3.9;;
27357;SDS011;14831;50.474;7.616;2022-12-18T18:28:02;4.7;;;3.9;;
27357;SDS011;14831;50.474;7.616;2022-12-18T18:33:02;4.7;;;3.9;;
27357;SDS011;14831;50.474;7.616;2022-12-18T18:38:02;4.7;;;3.9;;
27357;SDS011;14831;50.474;7.616;2022-12-18T18:43:02;4.7;;;3.9;;
27357;SDS011;14831;50.474;7.616;2022-12-18T18:48:02;4.7;;;3.9;;
27357;SDS011;14831;50.474;7.616;2022-12-18T18:53:02;5.9;;;4.6;;
27357;SDS011;14831;50.474;7.616;2022-12-18T18:58:02;5.9;;;4.6;;
27357;SDS011;14831;50.474;7.616;2022-12-18T19:03:02;5.9;;;4.6;;
27357;SDS011;14831;50.474;7.616;2022-12-18T19:08:02;5.9;;;4.6;;
27357;SDS011;14831;50.474;7.616;2022-12-18T19:13:02;5.9;;;4.6;;
27357;SDS011;14831;50.474;7.616;2022-12-18T19:18:02;5.9;;;4.6;;
27357;SDS011;14831;50.474;7.616;2022-12-18T19:23:02;4.6;;;4.1;;
27357;SDS011;14831;50.474;7.616;2022-12-18T19:28:02;4.6;;;4.1;;
27357;SDS011;14831;50.474;7.616;2022-12-18T19:33:02;4.6;;;4.1;;
27357;SDS011;14831;50.474;7.616;2022-12-18T19:38:02;4.6;;;4.1;;
27357;SDS011;14831;50.474;7.616;2022-12-18T19:43:02;4.6;;;4.1;;
27357;SDS011;14831;50.474;7.616;2022-12-18T19:48:04;4.6;;;4.1;;
27357;SDS011;14831;50.474;7.616;2022-12-18T19:53:02;5.0;;;4.3;;
27357;SDS011;14831;50.474;7.616;2022-12-18T19:58:02;5.0;;;4.3;;
27357;SDS011;14831;50.474;7.616;2022-12-18T20:03:02;5.0;;;4.3;;
27357;SDS011;14831;50.474;7.616;2022-12-18T20:08:02;5.0;;;4.3;;
27357;SDS011;14831;50.474;7.616;2022-12-18T20:13:02;5.0;;;4.3;;
27357;SDS011;14831;50.474;7.616;2022-12-18T20:18:02;5.0;;;4.3;;
27357;SDS011;14831;50.474;7.616;2022-12-18T20:23:02;4.6;;;4.1;;
27357;SDS011;14831;50.474;7.616;2022-12-18T20:28:02;4.6;;;4.1;;
27357;SDS011;14831;50.474;7.616;2022-12-18T20:33:02;4.6;;;4.1;;
27357;SDS011;14831;50.474;7.616;2022-12-18T20:38:02;4.6;;;4.1;;
27357;SDS011;14831;50.474;7.616;2022-12-18T20:43:02;4.6;;;4.1;;
27357;SDS011;14831;50.474;7.616;2022-12-18T20:48:02;4.6;;;4.1;;
27357;SDS011;14831;50.474;7.616;2022-12-18T20:53:02;4.7;;;4.3;;
27357;SDS011;14831;50.474;7.616;2022-12-18T20:58:02;4.7;;;4.3;;
27357;SDS011;14831;50.474;7.616;2022-12-18T21:03:02;4.7;;;4.3;;
27357;SDS011;14831;50.474;7.616;2022-12-18T21:08:02;4.7;;;4.3;;
27357;SDS011;14831;50.474;7.616;2022-12-18T21:13:02;4.7;;;4.3;;
27357;SDS011;14831;50.474;7.616;2022-12-18T21:18:02;4.7;;;4.3;;
27357;SDS011;14831;50.474;7.616;2022-12-18T21:23:02;4.8;;;4.3;;
27357;SDS011;14831;50.474;7.616;2022-12-18T21:28:02;4.8;;;4.3;;
27357;SDS011;14831;50.474;7.616;2022-12-18T21:33:02;4.8;;;4.3;;
27357;SDS011;14831;50.474;7.616;2022-12-18T21:38:02;4.8;;;4.3;;
27357;SDS011;14831;50.474;7.616;2022-12-18T21:43:02;4.8;;;4.3;;
27357;SDS011;14831;50.474;7.616;2022-12-18T21:48:02;4.8;;;4.3;;
27357;SDS011;14831;50.474;7.616;2022-12-18T21:53:02;4.9;;;4.2;;
27357;SDS011;14831;50.474;7.616;2022-12-18T21:58:02;4.9;;;4.2;;
27357;SDS011;14831;50.474;7.616;2022-12-18T22:03:02;4.9;;;4.2;;
27357;SDS011;14831;50.474;7.616;2022-12-18T22:08:02;4.9;;;4.2;;
27357;SDS011;14831;50.474;7.616;2022-12-18T22:13:02;4.9;;;4.2;;
27357;SDS011;14831;50.474;7.616;2022-12-18T22:18:02;4.9;;;4.2;;
27357;SDS011;14831;50.474;7.616;2022-12-18T22:23:03;4.6;;;4.1;;
27357;SDS011;14831;50.474;7.616;2022-12-18T22:28:02;4.6;;;4.1;;
27357;SDS011;14831;50.474;7.616;2022-12-18T22:33:02;4.6;;;4.1;;
27357;SDS011;14831;50.474;7.616;2022-12-18T22:38:02;4.6;;;4.1;;
27357;SDS011;14831;50.474;7.616;2022-12-18T22:43:02;4.6;;;4.1;;
27357;SDS011;14831;50.474;7.616;2022-12-18T22:48:02;4.6;;;4.1;;
27357;SDS011;14831;50.474;7.616;2022-12-18T22:53:02;4.3;;;3.9;;
27357;SDS011;14831;50.474;7.616;2022-12-18T22:58:02;4.3;;;3.9;;
27357;SDS011;14831;50.474;7.616;2022-12-18T23:03:02;4.3;;;3.9;;
27357;SDS011;14831;50.474;7.616;2022-12-18T23:08:02;4.3;;;3.9;;
27357;SDS011;14831;50.474;7.616;2022-12-18T23:13:02;4.3;;;3.9;;
27357;SDS011;14831;50.474;7.616;2022-12-18T23:18:02;4.3;;;3.9;;
27357;SDS011;14831;50.474;7.616;2022-12-18T23:23:02;4.2;;;3.5;;
27357;SDS011;14831;50.474;7.616;2022-12-18T23:28:02;4.2;;;3.5;;
27357;SDS011;14831;50.474;7.616;2022-12-18T23:33:02;4.2;;;3.5;;
27357;SDS011;14831;50.474;7.616;2022-12-18T23:38:02;4.2;;;3.5;;
27357;SDS011;14831;50.474;7.616;2022-12-18T23:43:02;4.2;;;3.5;;
27357;SDS011;14831;50.474;7.616;2022-12-18T23:48:02;4.2;;;3.5;;
27357;SDS011;14831;50.474;7.616;2022-12-18T23:53:02;4.0;;;3.6;;
27357;SDS011;14831;50.474;7.616;2022-12-18T23:58:02;4.0;;;3.6;;
